Time;durP1;ratioP1;P1;durP2;ratioP2;P2;SDS_P1;SDS_P2;PMS_P1;PMS_P2;Temp;Humidity;BMP_temperature;BMP_pressure;BME280_temperature;BME280_humidity;BME280_pressure;Samples;Min_cycle;Max_cycle;Signal;HPM_P1;HPM_P2
2022/03/04 00:00:32;;;;;;;16.75;10.68;;;-0.80;99.90;;;;;;4861630;29;20037;-81
2022/03/04 00:03:00;;;;;;;15.88;9.93;;;-0.80;99.90;;;;;;4847137;29;20049;-81
2022/03/04 00:05:28;;;;;;;13.60;10.73;;;-0.80;99.90;;;;;;4830931;29;20041;-81
2022/03/04 00:07:56;;;;;;;12.02;9.20;;;-0.80;99.90;;;;;;4831109;29;20041;-81
2022/03/04 00:10:24;;;;;;;17.77;10.95;;;-0.80;99.90;;;;;;4831010;29;20049;-81
2022/03/04 00:12:54;;;;;;;18.02;11.32;;;-0.80;99.90;;;;;;4841207;29;20057;-81
2022/03/04 00:15:22;;;;;;;15.95;10.75;;;-0.90;99.90;;;;;;4828619;29;20058;-81
2022/03/04 00:17:50;;;;;;;13.20;9.80;;;-0.90;99.90;;;;;;4844052;29;20049;-81
2022/03/04 00:20:18;;;;;;;15.80;11.25;;;-0.90;99.90;;;;;;4861485;29;20419;-81
2022/03/04 00:22:46;;;;;;;16.75;9.80;;;-1.00;99.90;;;;;;4861957;29;20555;-81
2022/03/04 00:25:14;;;;;;;15.60;11.45;;;-0.80;99.90;;;;;;4861010;29;20049;-81
2022/03/04 00:27:42;;;;;;;18.77;9.15;;;-0.80;99.90;;;;;;4845984;29;20061;-81
2022/03/04 00:30:10;;;;;;;15.00;9.80;;;-0.80;99.90;;;;;;4846427;29;20057;-81
2022/03/04 00:32:39;;;;;;;8.32;5.03;;;-0.80;99.90;;;;;;4845710;29;20057;-81
2022/03/04 00:35:08;;;;;;;14.77;9.02;;;-0.80;99.90;;;;;;4831221;29;20052;-81
2022/03/04 00:37:36;;;;;;;14.27;9.70;;;-0.90;99.90;;;;;;4846040;29;20060;-81
2022/03/04 00:40:05;;;;;;;14.20;8.65;;;-0.90;99.90;;;;;;4877521;29;20049;-81
2022/03/04 00:42:33;;;;;;;14.30;9.15;;;-0.90;99.90;;;;;;4846063;29;20045;-81
2022/03/04 00:45:01;;;;;;;19.60;11.35;;;-1.00;99.90;;;;;;4877703;29;20056;-80
2022/03/04 00:47:29;;;;;;;22.55;10.00;;;-0.90;99.90;;;;;;4846678;29;20076;-81
2022/03/04 00:49:58;;;;;;;13.77;9.55;;;-1.10;99.90;;;;;;4834547;29;20404;-81
2022/03/04 00:52:26;;;;;;;15.00;8.30;;;-1.20;99.90;;;;;;4827472;29;20053;-80
2022/03/04 00:54:53;;;;;;;21.17;12.60;;;-1.20;99.90;;;;;;4842818;29;20056;-81
2022/03/04 00:57:21;;;;;;;12.93;8.43;;;-1.20;99.90;;;;;;4851863;29;20063;-81
2022/03/04 00:59:49;;;;;;;14.15;10.80;;;-1.20;99.90;;;;;;4845326;29;20107;-81
2022/03/04 01:02:16;;;;;;;10.63;7.03;;;-1.20;99.90;;;;;;4861568;29;20049;-80
2022/03/04 01:04:45;;;;;;;9.60;6.80;;;-1.20;99.90;;;;;;4845446;29;20621;-80
2022/03/04 01:07:12;;;;;;;10.57;7.80;;;-1.20;99.90;;;;;;4877835;29;20506;-80
2022/03/04 01:09:40;;;;;;;16.55;8.52;;;-1.20;99.90;;;;;;4844708;29;20041;-81
2022/03/04 01:12:08;;;;;;;15.18;11.30;;;-1.20;99.90;;;;;;4845174;29;20052;-80
2022/03/04 01:14:36;;;;;;;16.80;10.35;;;-1.20;99.90;;;;;;4846083;29;20071;-80
2022/03/04 01:17:05;;;;;;;14.63;9.48;;;-1.00;99.90;;;;;;4860676;29;20073;-80
2022/03/04 01:19:32;;;;;;;13.32;8.93;;;-1.10;99.90;;;;;;4845108;29;20049;-81
2022/03/04 01:22:00;;;;;;;21.98;11.80;;;-1.20;99.90;;;;;;4844415;29;20045;-80
2022/03/04 01:24:27;;;;;;;13.70;10.07;;;-1.20;99.90;;;;;;4845034;29;20045;-80
2022/03/04 01:26:55;;;;;;;13.07;9.55;;;-1.20;99.90;;;;;;4860681;29;20053;-80
2022/03/04 01:29:23;;;;;;;18.85;10.52;;;-1.30;99.90;;;;;;4859832;29;20052;-80
2022/03/04 01:31:51;;;;;;;21.30;10.57;;;-1.30;99.90;;;;;;4860477;29;20059;-81
2022/03/04 01:34:35;;;;;;;10.77;7.30;;;-1.40;99.90;;;;;;4838951;29;20052;-80
2022/03/04 01:37:58;;;;;;;11.77;9.10;;;-1.50;99.90;;;;;;4827289;29;20057;-80
2022/03/04 01:41:15;;;;;;;18.35;10.43;;;-1.40;99.90;;;;;;4828753;29;20052;-80
2022/03/04 01:44:28;;;;;;;16.85;9.82;;;-1.50;99.90;;;;;;4846482;29;20045;-80
2022/03/04 01:47:14;;;;;;;9.10;8.20;;;-1.50;99.90;;;;;;4830706;29;20049;-80
2022/03/04 01:49:42;;;;;;;16.33;10.95;;;-1.60;99.90;;;;;;4834777;29;20057;-80
2022/03/04 01:52:10;;;;;;;14.88;9.40;;;-1.70;99.90;;;;;;4826290;29;20056;-80
2022/03/04 01:54:39;;;;;;;20.73;9.35;;;-1.70;99.90;;;;;;4825827;29;20065;-80
2022/03/04 01:57:06;;;;;;;13.20;8.18;;;-1.80;99.90;;;;;;4841337;29;20057;-80
2022/03/04 01:59:35;;;;;;;14.25;9.90;;;-1.80;99.90;;;;;;4826229;29;20057;-81
2022/03/04 02:02:03;;;;;;;15.63;10.98;;;-1.80;99.90;;;;;;4858165;29;20053;-80
2022/03/04 02:04:31;;;;;;;16.70;12.43;;;-1.80;99.90;;;;;;4841162;29;20057;-80
2022/03/04 02:06:59;;;;;;;13.80;10.35;;;-1.80;99.90;;;;;;4826954;29;20049;-80
2022/03/04 02:09:26;;;;;;;13.20;8.55;;;-1.80;99.90;;;;;;4825737;29;20064;-80
2022/03/04 02:11:54;;;;;;;12.98;8.38;;;-1.90;99.90;;;;;;4840856;29;20156;-80
2022/03/04 02:14:22;;;;;;;14.85;10.77;;;-2.00;99.90;;;;;;4826535;29;20072;-80
2022/03/04 02:16:52;;;;;;;16.40;11.30;;;-2.00;99.90;;;;;;4826011;29;20053;-80
2022/03/04 02:19:21;;;;;;;16.20;10.68;;;-2.00;99.90;;;;;;4854620;29;20044;-80
2022/03/04 02:21:55;;;;;;;10.93;8.98;;;-2.00;99.90;;;;;;4844241;29;20051;-80
2022/03/04 02:24:24;;;;;;;15.70;8.27;;;-2.00;99.90;;;;;;4844071;29;20562;-83
2022/03/04 02:26:55;;;;;;;11.98;8.63;;;-2.00;99.90;;;;;;4859384;29;20057;-83
2022/03/04 02:29:24;;;;;;;18.98;12.05;;;-2.00;99.90;;;;;;4875588;29;20060;-82
2022/03/04 02:31:53;;;;;;;27.13;11.18;;;-2.00;99.90;;;;;;4876213;29;20059;-83
2022/03/04 02:34:21;;;;;;;16.27;8.40;;;-2.00;99.90;;;;;;4876788;29;20060;-83
2022/03/04 02:36:49;;;;;;;16.30;9.10;;;-2.00;99.90;;;;;;4875865;29;20084;-82
2022/03/04 02:39:17;;;;;;;17.52;9.55;;;-2.00;99.90;;;;;;4859691;29;20535;-83
2022/03/04 02:41:45;;;;;;;15.65;9.23;;;-2.10;99.90;;;;;;4858634;29;20419;-83
2022/03/04 02:44:14;;;;;;;19.17;11.15;;;-2.20;99.90;;;;;;4875478;29;20502;-83
2022/03/04 02:46:42;;;;;;;15.73;9.48;;;-2.30;99.90;;;;;;4876548;29;20049;-83
2022/03/04 02:49:10;;;;;;;22.25;12.77;;;-2.30;99.90;;;;;;4875773;29;20068;-83
2022/03/04 02:51:39;;;;;;;19.63;10.75;;;-2.30;99.90;;;;;;4859410;29;20049;-83
2022/03/04 02:54:07;;;;;;;13.00;8.13;;;-2.30;99.90;;;;;;4860020;29;20396;-83
2022/03/04 02:56:34;;;;;;;15.32;11.85;;;-2.30;99.90;;;;;;4875097;29;20079;-83
2022/03/04 02:59:02;;;;;;;15.25;9.27;;;-2.30;99.90;;;;;;4876003;29;20053;-83
2022/03/04 03:01:30;;;;;;;15.95;8.63;;;-2.20;99.90;;;;;;4875834;29;20131;-83
2022/03/04 03:03:58;;;;;;;13.18;8.90;;;-2.40;99.90;;;;;;4876260;29;20056;-82
2022/03/04 03:06:26;;;;;;;17.83;11.25;;;-2.40;99.90;;;;;;4879810;29;20072;-82
2022/03/04 03:08:54;;;;;;;23.45;10.00;;;-2.40;99.90;;;;;;4878827;29;20045;-83
2022/03/04 03:11:22;;;;;;;14.48;8.07;;;-2.50;99.90;;;;;;4862446;29;20553;-82
2022/03/04 03:13:50;;;;;;;11.93;8.88;;;-2.60;99.90;;;;;;4879493;29;20053;-82
2022/03/04 03:16:17;;;;;;;14.02;9.65;;;-2.80;99.90;;;;;;4879221;29;20056;-82
2022/03/04 03:18:45;;;;;;;14.35;8.68;;;-2.80;99.90;;;;;;4879637;29;20053;-82
2022/03/04 03:21:13;;;;;;;14.32;10.55;;;-2.80;99.90;;;;;;4878886;29;20056;-81
2022/03/04 03:23:41;;;;;;;13.60;9.52;;;-2.80;99.90;;;;;;4879149;29;20064;-82
2022/03/04 03:26:08;;;;;;;18.50;9.68;;;-2.90;99.90;;;;;;4879309;29;20060;-82
2022/03/04 03:28:36;;;;;;;23.80;10.60;;;-2.90;99.90;;;;;;4878939;29;20064;-82
2022/03/04 03:31:04;;;;;;;17.38;11.15;;;-3.00;99.90;;;;;;4879310;29;20480;-82
2022/03/04 03:33:31;;;;;;;12.80;9.65;;;-3.10;99.90;;;;;;4879231;29;20049;-82
2022/03/04 03:35:59;;;;;;;19.80;9.23;;;-3.20;99.90;;;;;;4878672;29;20049;-82
2022/03/04 03:38:27;;;;;;;14.05;9.90;;;-3.40;99.90;;;;;;4879238;29;20064;-82
2022/03/04 03:40:55;;;;;;;15.27;9.50;;;-3.40;99.90;;;;;;4861379;29;20049;-82
2022/03/04 03:43:41;;;;;;;14.30;10.10;;;-3.40;99.90;;;;;;4878815;29;20064;-81
2022/03/04 03:46:09;;;;;;;20.52;9.65;;;-3.40;99.90;;;;;;4862997;29;20048;-82
2022/03/04 03:48:41;;;;;;;26.17;9.02;;;-3.50;99.90;;;;;;4861873;29;20053;-83
2022/03/04 03:51:09;;;;;;;11.65;7.85;;;-3.60;99.90;;;;;;4878821;29;20056;-83
2022/03/04 03:53:38;;;;;;;17.27;10.50;;;-3.70;99.90;;;;;;4878838;29;20833;-83
2022/03/04 03:56:06;;;;;;;16.65;10.65;;;-3.70;99.90;;;;;;4861193;29;20048;-83
2022/03/04 03:58:34;;;;;;;16.60;10.23;;;-3.60;99.90;;;;;;4860388;29;20049;-82
2022/03/04 04:01:03;;;;;;;13.50;9.57;;;-3.50;99.90;;;;;;4859485;29;20061;-83
2022/03/04 04:03:31;;;;;;;18.30;11.32;;;-3.50;99.90;;;;;;4843961;29;20053;-82
2022/03/04 04:05:59;;;;;;;16.05;9.02;;;-3.80;99.90;;;;;;4842753;29;20057;-83
2022/03/04 04:08:26;;;;;;;13.68;9.25;;;-4.10;99.90;;;;;;4859231;29;20049;-82
2022/03/04 04:10:55;;;;;;;14.23;8.73;;;-4.30;99.90;;;;;;4859729;29;20056;-84
2022/03/04 04:13:23;;;;;;;13.15;8.43;;;-4.30;99.90;;;;;;4843144;29;20414;-84
2022/03/04 04:15:52;;;;;;;14.77;10.35;;;-4.40;99.90;;;;;;4842683;29;20388;-83
2022/03/04 04:18:20;;;;;;;10.13;8.60;;;-4.50;99.90;;;;;;4860786;29;20050;-83
2022/03/04 04:20:48;;;;;;;17.65;9.98;;;-4.50;99.90;;;;;;4843432;29;20045;-84
2022/03/04 04:23:16;;;;;;;14.65;9.65;;;-4.50;99.90;;;;;;4860502;29;20049;-83
2022/03/04 04:25:44;;;;;;;12.95;8.23;;;-4.50;99.90;;;;;;4843366;29;20050;-83
2022/03/04 04:28:12;;;;;;;17.70;8.85;;;-4.50;99.90;;;;;;4843241;29;20053;-83
2022/03/04 04:30:40;;;;;;;16.52;9.73;;;-4.40;99.90;;;;;;4860815;29;20065;-83
2022/03/04 04:33:08;;;;;;;21.98;9.63;;;-4.40;99.90;;;;;;4843459;29;20049;-83
2022/03/04 04:35:36;;;;;;;16.08;9.73;;;-4.50;99.90;;;;;;4859704;29;20053;-83
2022/03/04 04:38:04;;;;;;;15.60;8.88;;;-4.50;99.90;;;;;;4860178;29;20054;-83
2022/03/04 04:40:32;;;;;;;13.32;8.48;;;-4.50;99.90;;;;;;4827573;29;20054;-83
2022/03/04 04:43:00;;;;;;;16.00;8.85;;;-4.50;99.90;;;;;;4860346;29;20050;-83
2022/03/04 04:45:28;;;;;;;15.05;8.27;;;-4.60;99.90;;;;;;4844228;29;20617;-82
2022/03/04 04:47:56;;;;;;;11.85;10.18;;;-4.40;99.90;;;;;;4878292;29;20052;-82
2022/03/04 04:50:23;;;;;;;12.13;8.95;;;-4.50;99.90;;;;;;4847842;29;20049;-82
2022/03/04 04:52:51;;;;;;;13.80;9.32;;;-4.60;99.90;;;;;;4859504;29;20051;-83
2022/03/04 04:55:40;;;;;;;13.02;8.27;;;-4.60;99.90;;;;;;4859713;29;20054;-83
2022/03/04 04:59:00;;;;;;;15.60;10.65;;;-4.60;99.90;;;;;;4846208;29;20047;-83
2022/03/04 05:02:24;;;;;;;19.73;9.95;;;-4.60;99.90;;;;;;4859063;29;20046;-83
2022/03/04 05:05:48;;;;;;;19.23;11.15;;;-4.60;99.90;;;;;;4859199;29;20053;-83
2022/03/04 05:09:06;;;;;;;25.20;10.70;;;-4.50;99.90;;;;;;4858987;29;20057;-83
2022/03/04 05:12:26;;;;;;;23.80;8.77;;;-4.50;99.90;;;;;;4859027;29;20045;-83
2022/03/04 05:15:02;;;;;;;16.60;7.60;;;-4.70;99.90;;;;;;4858605;29;20049;-83
2022/03/04 05:17:30;;;;;;;16.48;10.45;;;-4.80;99.90;;;;;;4859258;29;20076;-83
2022/03/04 05:19:57;;;;;;;14.35;9.63;;;-4.80;99.90;;;;;;4876282;29;20052;-83
2022/03/04 05:22:25;;;;;;;10.30;7.75;;;-4.90;99.90;;;;;;4861203;29;20049;-82
2022/03/04 05:24:53;;;;;;;11.65;6.78;;;-5.00;99.90;;;;;;4860741;29;20052;-83
2022/03/04 05:27:21;;;;;;;20.02;9.20;;;-5.10;99.90;;;;;;4877457;29;20057;-83
2022/03/04 05:29:48;;;;;;;13.23;9.25;;;-5.10;99.90;;;;;;4876966;29;20135;-82
2022/03/04 05:32:16;;;;;;;14.27;8.38;;;-5.10;99.90;;;;;;4877508;29;20053;-82
2022/03/04 05:34:44;;;;;;;18.77;10.43;;;-5.10;99.90;;;;;;4877634;29;20064;-82
2022/03/04 05:37:11;;;;;;;11.10;7.82;;;-5.20;99.90;;;;;;4846143;29;20057;-82
2022/03/04 05:39:39;;;;;;;13.38;9.43;;;-5.20;99.90;;;;;;4864928;29;20519;-82
2022/03/04 05:42:07;;;;;;;18.60;10.65;;;-5.20;99.90;;;;;;4870431;29;20396;-82
2022/03/04 05:44:35;;;;;;;16.13;10.75;;;-5.30;99.90;;;;;;4858785;29;20060;-82
2022/03/04 05:47:03;;;;;;;19.90;11.10;;;-5.30;99.90;;;;;;4842289;29;20064;-82
2022/03/04 05:49:31;;;;;;;9.70;8.68;;;-5.30;99.90;;;;;;4865477;29;20087;-81
2022/03/04 05:51:59;;;;;;;14.18;8.32;;;-5.30;99.90;;;;;;4877180;29;20399;-86
2022/03/04 05:54:26;;;;;;;14.60;9.60;;;-5.20;99.90;;;;;;4860819;29;20053;-86
2022/03/04 05:56:55;;;;;;;18.75;8.85;;;-5.10;99.90;;;;;;4860168;29;20068;-83
2022/03/04 05:59:23;;;;;;;9.68;8.20;;;-5.00;99.90;;;;;;4877380;29;20049;-82
2022/03/04 06:01:50;;;;;;;26.90;11.95;;;-4.90;99.90;;;;;;4876691;29;20421;-83
2022/03/04 06:04:18;;;;;;;13.57;8.85;;;-4.90;99.90;;;;;;4877111;29;20127;-83
2022/03/04 06:06:46;;;;;;;19.17;8.98;;;-4.80;99.90;;;;;;4874040;29;20050;-82
2022/03/04 06:09:14;;;;;;;18.27;8.48;;;-4.90;99.90;;;;;;4874015;29;20056;-84
2022/03/04 06:11:44;;;;;;;14.88;8.50;;;-5.10;99.90;;;;;;4876403;29;20064;-85
2022/03/04 06:14:12;;;;;;;10.15;6.80;;;-5.10;99.90;;;;;;4876937;29;20067;-84
2022/03/04 06:16:40;;;;;;;13.60;6.95;;;-5.00;99.90;;;;;;4876610;29;20494;-85
2022/03/04 06:19:11;;;;;;;10.15;7.82;;;-4.90;99.90;;;;;;4877145;29;20530;-84
2022/03/04 06:21:39;;;;;;;16.13;9.60;;;-4.70;99.90;;;;;;4860011;29;20060;-85
2022/03/04 06:24:06;;;;;;;19.02;8.82;;;-4.60;99.90;;;;;;4859602;29;20041;-85
2022/03/04 06:26:35;;;;;;;13.52;9.15;;;-4.60;99.90;;;;;;4860474;29;20060;-84
2022/03/04 06:29:03;;;;;;;11.43;8.93;;;-4.50;99.90;;;;;;4870128;29;20076;-90
2022/03/04 06:31:31;;;;;;;17.33;8.75;;;-4.40;99.90;;;;;;4827987;29;20066;-89
2022/03/04 06:33:59;;;;;;;23.88;10.98;;;-4.30;99.90;;;;;;4869559;29;20049;-89
2022/03/04 06:36:26;;;;;;;25.70;13.27;;;-4.20;99.90;;;;;;4861535;29;20053;-90
2022/03/04 06:38:54;;;;;;;17.17;8.85;;;-4.20;99.90;;;;;;4845030;29;20048;-78
2022/03/04 06:41:22;;;;;;;20.58;10.55;;;-4.10;99.90;;;;;;4880025;29;20049;-78
2022/03/04 06:43:50;;;;;;;17.38;9.13;;;-4.00;99.90;;;;;;4865072;29;20060;-90
2022/03/04 06:46:18;;;;;;;14.10;8.27;;;-3.90;99.90;;;;;;4847106;29;20057;-89
2022/03/04 06:48:46;;;;;;;18.65;8.38;;;-3.80;99.90;;;;;;4862721;29;20046;-84
2022/03/04 06:51:14;;;;;;;13.95;8.48;;;-3.70;99.90;;;;;;4831353;29;20049;-86
2022/03/04 06:53:42;;;;;;;17.30;8.15;;;-3.70;99.90;;;;;;4824159;29;20045;-85
2022/03/04 06:56:09;;;;;;;24.60;10.30;;;-3.50;99.90;;;;;;4855235;29;20077;-87
2022/03/04 06:58:37;;;;;;;17.27;11.27;;;-3.40;99.90;;;;;;4853672;29;20041;-86
2022/03/04 07:01:05;;;;;;;15.07;9.05;;;-3.10;99.90;;;;;;4862181;29;20049;-89
2022/03/04 07:03:33;;;;;;;12.60;10.18;;;-3.00;99.90;;;;;;4862870;29;20053;-85
2022/03/04 07:06:01;;;;;;;12.23;8.75;;;-2.60;99.90;;;;;;4846486;29;20057;-88
2022/03/04 07:08:34;;;;;;;15.93;10.93;;;-2.50;99.90;;;;;;4864185;29;20484;-89
2022/03/04 07:11:03;;;;;;;27.60;10.80;;;-2.20;99.90;;;;;;4848351;29;20076;-88
2022/03/04 07:13:32;;;;;;;16.70;9.82;;;-1.90;99.90;;;;;;4837874;29;20054;-78
2022/03/04 07:16:00;;;;;;;22.27;11.40;;;-1.60;99.90;;;;;;4833740;29;20045;-87
2022/03/04 07:18:32;;;;;;;15.52;8.50;;;-1.40;99.90;;;;;;4840637;29;20049;-90
2022/03/04 07:21:04;;;;;;;13.25;8.20;;;-1.10;99.90;;;;;;4856334;29;20049;-87
2022/03/04 07:23:32;;;;;;;9.38;7.15;;;-0.80;99.90;;;;;;4840144;29;20057;-86
2022/03/04 07:26:00;;;;;;;24.95;16.42;;;-0.70;99.90;;;;;;4842719;29;20056;-85
2022/03/04 07:28:27;;;;;;;10.38;6.80;;;-0.50;99.90;;;;;;4844814;29;20053;-83
2022/03/04 07:30:56;;;;;;;11.27;9.70;;;-0.30;99.90;;;;;;4860465;29;20046;-86
2022/03/04 07:33:23;;;;;;;21.65;9.55;;;-0.10;99.90;;;;;;4861135;29;20045;-86
2022/03/04 07:35:51;;;;;;;14.80;9.02;;;0.10;99.90;;;;;;4861248;29;20086;-84
2022/03/04 07:38:19;;;;;;;8.32;7.50;;;0.20;99.90;;;;;;4861300;29;20041;-83
2022/03/04 07:40:47;;;;;;;9.93;7.63;;;0.20;99.90;;;;;;4858416;29;20046;-84
2022/03/04 07:43:14;;;;;;;24.63;10.50;;;0.40;99.90;;;;;;4856556;29;20061;-77
2022/03/04 07:45:42;;;;;;;17.08;13.13;;;0.50;99.90;;;;;;4842318;29;20045;-79
2022/03/04 07:48:10;;;;;;;26.55;17.38;;;0.70;99.90;;;;;;4847539;29;20052;-82
2022/03/04 07:50:38;;;;;;;10.85;8.20;;;0.80;99.90;;;;;;4860749;29;20092;-86
2022/03/04 07:53:05;;;;;;;10.13;7.85;;;0.90;99.90;;;;;;4860531;29;20045;-84
2022/03/04 07:55:33;;;;;;;15.55;10.23;;;1.00;99.90;;;;;;4860925;29;20057;-82
2022/03/04 07:58:01;;;;;;;8.30;4.97;;;1.20;99.90;;;;;;4874590;29;20060;-82
2022/03/04 08:00:28;;;;;;;21.23;13.50;;;1.40;99.30;;;;;;4878611;29;20038;-85
2022/03/04 08:02:57;;;;;;;15.82;10.50;;;1.60;99.20;;;;;;4879666;29;20060;-82
2022/03/04 08:05:26;;;;;;;23.17;11.57;;;1.60;99.00;;;;;;4878873;29;20057;-81
2022/03/04 08:07:53;;;;;;;10.77;8.80;;;1.70;96.20;;;;;;4879046;29;20049;-85
2022/03/04 08:10:21;;;;;;;19.67;12.30;;;1.70;97.50;;;;;;4847215;29;20848;-80
2022/03/04 08:12:49;;;;;;;14.23;8.52;;;1.80;96.40;;;;;;4878817;29;20056;-85
2022/03/04 08:15:18;;;;;;;19.55;10.93;;;2.10;96.70;;;;;;4861695;29;20057;-86
2022/03/04 08:17:46;;;;;;;12.73;6.65;;;2.20;96.80;;;;;;4856277;29;20045;-86
2022/03/04 08:20:13;;;;;;;12.23;7.20;;;2.20;95.60;;;;;;4868594;29;20053;-82
2022/03/04 08:22:41;;;;;;;21.80;14.32;;;2.10;95.70;;;;;;4860650;29;20064;-83
2022/03/04 08:25:09;;;;;;;18.23;11.68;;;2.10;95.40;;;;;;4859988;29;20049;-82
2022/03/04 08:27:39;;;;;;;19.38;13.25;;;2.30;95.90;;;;;;4860136;29;20050;-85
2022/03/04 08:30:09;;;;;;;18.45;12.93;;;2.40;94.90;;;;;;4844601;29;20065;-85
2022/03/04 08:32:37;;;;;;;19.45;13.20;;;2.50;97.00;;;;;;4844128;29;20045;-87
2022/03/04 08:35:05;;;;;;;20.80;11.07;;;2.60;95.90;;;;;;4860568;29;20057;-83
2022/03/04 08:37:34;;;;;;;18.98;14.18;;;2.50;94.10;;;;;;4860383;29;20056;-83
2022/03/04 08:40:04;;;;;;;14.93;12.68;;;2.40;94.70;;;;;;4859590;29;20049;-82
2022/03/04 08:42:32;;;;;;;18.67;11.98;;;2.40;94.00;;;;;;4844148;29;20057;-85
2022/03/04 08:45:00;;;;;;;18.67;8.93;;;2.30;94.40;;;;;;4843606;29;20049;-82
2022/03/04 08:47:28;;;;;;;22.17;11.43;;;2.30;94.70;;;;;;4876498;29;20068;-84
2022/03/04 08:49:56;;;;;;;15.20;11.23;;;2.30;96.00;;;;;;4873268;29;20071;-83
2022/03/04 08:52:24;;;;;;;24.80;14.82;;;2.40;94.50;;;;;;4878456;29;20045;-85
2022/03/04 08:54:52;;;;;;;21.33;10.45;;;2.50;95.20;;;;;;4845638;29;20060;-86
2022/03/04 08:57:19;;;;;;;20.58;12.30;;;2.60;95.40;;;;;;4875065;29;20052;-86
2022/03/04 08:59:47;;;;;;;24.17;11.65;;;2.90;96.30;;;;;;4877918;29;20057;-86
2022/03/04 09:02:15;;;;;;;26.95;18.17;;;3.10;92.90;;;;;;4878363;29;20064;-81
2022/03/04 09:04:43;;;;;;;21.27;11.90;;;2.90;91.50;;;;;;4877714;29;20052;-83
2022/03/04 09:07:10;;;;;;;17.80;12.88;;;2.70;92.30;;;;;;4877615;29;20065;-83
2022/03/04 09:09:38;;;;;;;21.88;14.15;;;2.70;92.10;;;;;;4850217;29;20049;-83
2022/03/04 09:12:07;;;;;;;22.77;9.63;;;2.70;94.10;;;;;;4860326;29;20041;-83
2022/03/04 09:14:34;;;;;;;20.95;13.13;;;2.90;94.10;;;;;;4877466;29;20182;-83
2022/03/04 09:17:03;;;;;;;20.70;11.70;;;3.10;94.50;;;;;;4843699;29;20055;-83
2022/03/04 09:19:31;;;;;;;28.33;19.65;;;3.10;93.00;;;;;;4877419;29;20056;-83
2022/03/04 09:22:19;;;;;;;27.27;12.32;;;2.90;93.60;;;;;;4851539;29;20049;-83
2022/03/04 09:24:47;;;;;;;24.83;18.95;;;2.90;94.70;;;;;;4852752;29;20049;-83
2022/03/04 09:27:15;;;;;;;17.35;10.82;;;3.00;94.20;;;;;;4867860;29;20057;-83
2022/03/04 09:29:43;;;;;;;20.15;10.90;;;3.00;95.80;;;;;;4859946;29;20408;-83
2022/03/04 09:32:11;;;;;;;24.65;11.40;;;3.30;95.80;;;;;;4860272;29;20041;-83
2022/03/04 09:34:39;;;;;;;21.92;13.90;;;3.40;95.90;;;;;;4850678;29;20119;-84
2022/03/04 09:37:07;;;;;;;24.90;16.42;;;3.30;96.20;;;;;;4875599;29;20048;-83
2022/03/04 09:39:35;;;;;;;14.77;11.35;;;3.40;95.50;;;;;;4848939;29;20038;-83
2022/03/04 09:42:03;;;;;;;9.75;7.75;;;3.40;95.90;;;;;;4873156;29;20063;-82
2022/03/04 09:44:31;;;;;;;25.02;17.98;;;3.50;95.60;;;;;;4859153;29;20056;-81
2022/03/04 09:47:01;;;;;;;27.48;16.10;;;3.40;96.00;;;;;;4858875;29;20056;-82
2022/03/04 09:49:35;;;;;;;14.32;11.02;;;3.40;95.40;;;;;;4865116;29;20064;-83
2022/03/04 09:52:04;;;;;;;27.90;14.38;;;3.30;96.20;;;;;;4859982;29;20048;-84
2022/03/04 09:54:33;;;;;;;27.33;20.20;;;3.60;97.90;;;;;;4868975;29;20053;-82
2022/03/04 09:57:00;;;;;;;16.15;9.35;;;3.60;95.70;;;;;;4853786;29;20054;-83
2022/03/04 09:59:28;;;;;;;24.10;11.93;;;3.30;97.10;;;;;;4867090;29;20049;-83
2022/03/04 10:01:59;;;;;;;14.23;10.48;;;3.30;96.90;;;;;;4866490;29;20045;-82
2022/03/04 10:04:28;;;;;;;20.75;13.25;;;3.30;98.80;;;;;;4871143;29;20056;-82
2022/03/04 10:06:56;;;;;;;23.77;14.35;;;3.50;97.60;;;;;;4862230;29;20057;-82
2022/03/04 10:09:44;;;;;;;22.40;11.50;;;3.50;98.00;;;;;;4857745;29;20046;-84
2022/03/04 10:12:14;;;;;;;20.27;13.32;;;3.50;98.60;;;;;;4841778;29;20057;-84
2022/03/04 10:15:06;;;;;;;25.55;13.32;;;3.50;98.80;;;;;;4872460;29;20053;-84
2022/03/04 10:17:36;;;;;;;20.80;10.73;;;3.70;97.20;;;;;;4863414;29;20395;-83
2022/03/04 10:20:12;;;;;;;22.77;14.32;;;3.70;97.70;;;;;;4857463;29;20049;-83
2022/03/04 10:22:42;;;;;;;17.58;12.02;;;3.70;97.70;;;;;;4864849;29;20057;-84
2022/03/04 10:25:24;;;;;;;18.33;12.00;;;3.70;99.80;;;;;;4844065;29;20053;-84
2022/03/04 10:27:52;;;;;;;31.63;15.23;;;3.70;98.90;;;;;;4858098;29;20060;-84
2022/03/04 10:30:31;;;;;;;25.30;12.23;;;3.80;97.80;;;;;;4859083;29;20518;-84
2022/03/04 10:33:07;;;;;;;23.70;11.52;;;3.90;98.80;;;;;;4858269;29;20049;-83
2022/03/04 10:35:37;;;;;;;44.00;14.30;;;3.90;97.60;;;;;;4861424;29;20404;-83
2022/03/04 10:38:16;;;;;;;14.65;11.68;;;3.80;97.50;;;;;;4827555;29;20050;-83
2022/03/04 10:40:44;;;;;;;25.33;13.80;;;3.70;98.00;;;;;;4848279;29;20061;-84
2022/03/04 10:43:13;;;;;;;16.95;10.80;;;3.80;99.30;;;;;;4857042;29;20048;-83
2022/03/04 10:45:45;;;;;;;29.02;14.63;;;4.10;97.40;;;;;;4856179;29;20440;-84
2022/03/04 10:48:17;;;;;;;17.92;14.70;;;4.10;98.80;;;;;;4851904;29;20065;-82
2022/03/04 10:50:45;;;;;;;;;;;4.10;97.20;;;;;;4858517;29;20057;-87
2022/03/04 10:53:20;;;;;;;19.50;14.18;;;4.00;99.70;;;;;;4851165;29;19930;-83
2022/03/04 10:55:48;;;;;;;25.73;16.92;;;4.00;97.00;;;;;;4843942;29;20064;-82
2022/03/04 10:58:38;;;;;;;20.88;13.07;;;4.10;96.60;;;;;;4860134;29;20056;-83
2022/03/04 11:01:08;;;;;;;24.65;12.93;;;4.30;96.10;;;;;;4842412;29;20042;-84
2022/03/04 11:03:38;;;;;;;25.45;15.18;;;4.00;95.70;;;;;;4817481;29;20056;-80
2022/03/04 11:06:14;;;;;;;20.90;12.82;;;4.00;97.10;;;;;;4858160;29;20054;-85
2022/03/04 11:08:42;;;;;;;23.90;13.10;;;4.10;95.70;;;;;;4838199;29;20053;-85
2022/03/04 11:11:11;;;;;;;21.50;13.70;;;4.10;94.10;;;;;;4876034;29;20056;-87
2022/03/04 11:13:39;;;;;;;20.25;12.73;;;4.20;94.50;;;;;;4844252;29;20637;-87
2022/03/04 11:16:08;;;;;;;24.65;15.27;;;4.20;94.30;;;;;;4875802;29;20503;-84
2022/03/04 11:18:36;;;;;;;20.50;12.05;;;4.20;95.40;;;;;;4875957;29;20518;-86
2022/03/04 11:21:04;;;;;;;16.67;11.07;;;4.00;93.70;;;;;;4853749;29;20062;-82
2022/03/04 11:23:37;;;;;;;27.92;16.35;;;4.00;94.20;;;;;;4872132;29;20049;-83
2022/03/04 11:26:16;;;;;;;32.15;15.55;;;4.00;93.60;;;;;;4877433;29;20084;-84
2022/03/04 11:28:49;;;;;;;23.27;12.88;;;4.10;92.80;;;;;;4828609;29;20054;-86
2022/03/04 11:31:26;;;;;;;17.02;10.88;;;4.10;92.60;;;;;;4815503;29;20480;-87
2022/03/04 11:34:02;;;;;;;22.15;14.98;;;4.20;91.90;;;;;;4846844;29;20056;-89
2022/03/04 11:36:32;;;;;;;23.33;12.30;;;4.30;92.90;;;;;;4862517;29;20412;-88
2022/03/04 11:39:02;;;;;;;21.27;11.52;;;4.40;90.80;;;;;;4840777;29;20056;-89
2022/03/04 11:41:37;;;;;;;29.83;14.73;;;4.30;90.50;;;;;;4855128;29;20064;-88
2022/03/04 11:44:18;;;;;;;17.50;10.13;;;4.40;90.80;;;;;;4861186;29;20053;-83
2022/03/04 11:46:58;;;;;;;15.95;8.68;;;4.50;90.70;;;;;;4861771;29;20440;-85
2022/03/04 11:49:48;;;;;;;23.75;14.20;;;4.40;90.90;;;;;;4835587;29;20052;-84
2022/03/04 11:52:43;;;;;;;23.85;16.02;;;4.50;92.40;;;;;;4825890;29;20053;-87
2022/03/04 11:55:16;;;;;;;22.75;11.10;;;4.60;90.10;;;;;;4869456;29;20056;-87
2022/03/04 11:57:45;;;;;;;15.40;9.55;;;4.50;90.30;;;;;;4879144;29;20057;-83
2022/03/04 12:00:13;;;;;;;23.20;12.52;;;4.60;90.30;;;;;;4873415;29;20049;-87
2022/03/04 12:02:47;;;;;;;18.67;11.30;;;4.60;87.00;;;;;;4860771;29;20496;-85
2022/03/04 12:05:21;;;;;;;24.27;11.20;;;4.70;84.40;;;;;;4843386;29;20495;-88
2022/03/04 12:07:50;;;;;;;19.30;14.20;;;4.70;84.10;;;;;;4860338;29;20069;-87
2022/03/04 12:10:24;;;;;;;18.15;11.40;;;4.90;83.50;;;;;;4860479;29;20412;-87
2022/03/04 12:13:05;;;;;;;12.45;7.35;;;4.90;82.90;;;;;;4860347;29;20050;-87
2022/03/04 12:15:45;;;;;;;21.70;13.83;;;4.80;81.50;;;;;;4860854;29;20049;-86
2022/03/04 12:18:30;;;;;;;14.27;11.40;;;5.10;83.00;;;;;;4836992;29;20072;-85
2022/03/04 12:21:22;;;;;;;15.25;10.13;;;5.00;83.20;;;;;;4855234;29;20072;-87
2022/03/04 12:23:59;;;;;;;27.92;12.50;;;5.30;88.40;;;;;;4878697;29;20056;-87
2022/03/04 12:26:43;;;;;;;20.15;11.73;;;5.80;89.40;;;;;;4852734;29;20056;-83
2022/03/04 12:29:14;;;;;;;19.98;10.02;;;5.80;82.20;;;;;;4867372;29;20491;-84
2022/03/04 12:31:44;;;;;;;20.40;12.30;;;5.80;83.20;;;;;;4848399;29;20049;-88
2022/03/04 12:34:19;;;;;;;14.43;10.43;;;5.90;80.60;;;;;;4856628;29;20453;-86
2022/03/04 12:36:47;;;;;;;13.95;9.88;;;5.80;83.00;;;;;;4877844;29;20064;-87
2022/03/04 12:39:19;;;;;;;24.08;13.52;;;5.60;79.10;;;;;;4847077;29;20053;-87
2022/03/04 12:41:48;;;;;;;13.07;9.23;;;5.80;83.60;;;;;;4877910;29;20056;-86
2022/03/04 12:44:16;;;;;;;15.23;9.75;;;5.80;75.60;;;;;;4878346;29;20056;-86
2022/03/04 12:46:45;;;;;;;13.13;7.40;;;5.40;76.80;;;;;;4862223;29;20057;-86
2022/03/04 12:49:16;;;;;;;18.73;9.32;;;5.30;75.40;;;;;;4822444;29;20559;-87
2022/03/04 12:51:45;;;;;;;12.00;7.07;;;5.50;75.60;;;;;;4859524;29;20049;-87
2022/03/04 12:54:20;;;;;;;10.32;7.63;;;5.50;74.10;;;;;;4859927;29;20480;-88